»·PEaware :: HAWG11 KLSV-KLSV

HAWG11 :: KLSV-KLSV

FLIGHT INFORMATION

Flight Status: Arrived
Operator: Unknown
More flights by this operator :: More flights under this callsign
Pilot: Logan D. (20254)
Aircraft: FAIRCHILD A-10 THUNDERBOLT 2
(A10)
More flights by this aircraft type
Origin: KLSV Nellis AFB
United States
Destination: KLSV Nellis AFB
United States
More flights between these airports :: More routes between these airports
Route: +FYTTR5 FYTTR INS
File this flight plan on PilotEdge
Remarks: +CW / MANEUVERS IN R4806W, CANCEL IFR PRIOR TO R4806W, (SIN CITY VISUAL RW3 ON RETURN TO LSV)
Altitude:
(Current/Filed)
15,000ft
Speed:
(Current/Filed)
250kts
Departed: 19-Mar-20 03:58 PM
Arrived: 19-Mar-20 05:23 PM
Distance/Time
Traveled:
1nm/1:25
Distance/Time
To Go:
Arrived

Flight Plot

Page will automatically refresh every two minutes.

Flight plan parsing failed; only flown route is shown


Map Options




Map Legend


Flown Route
Filed Route
Departure Airport
Arrival Airport
Navaid (VOR, NDB)
Fix

Horizontal Profiles

Position Reports

Time Latitude Longitude Heading Altitude Ground
Speed
19-Mar-20 15:36 36.229865 -115.024945 86 1850ft 0kts
19-Mar-20 15:37 36.229865 -115.024945 86 1850ft 0kts
19-Mar-20 15:38 36.229865 -115.024945 86 1850ft 0kts
19-Mar-20 15:39 36.229865 -115.024945 86 1850ft 0kts
19-Mar-20 15:40 36.229865 -115.024945 86 1850ft 0kts
19-Mar-20 15:41 36.229865 -115.024945 86 1850ft 0kts
19-Mar-20 15:42 36.229865 -115.024945 86 1850ft 0kts
19-Mar-20 15:43 36.229865 -115.024945 86 1850ft 0kts
19-Mar-20 15:44 36.229865 -115.024945 86 1850ft 0kts
19-Mar-20 15:45 36.229865 -115.024945 86 1850ft 0kts
19-Mar-20 15:46 36.229865 -115.024945 86 1850ft 0kts
19-Mar-20 15:47 36.229865 -115.024945 86 1850ft 0kts
19-Mar-20 15:48 36.229865 -115.024945 86 1850ft 0kts
19-Mar-20 15:49 36.229865 -115.024945 86 1850ft 0kts
19-Mar-20 15:50 36.230082 -115.024838 292 1850ft 9kts
19-Mar-20 15:51 36.230707 -115.028926 271 1850ft 16kts
19-Mar-20 15:52 36.228267 -115.034335 220 1850ft 22kts
19-Mar-20 15:53 36.223520 -115.039492 217 1849ft 14kts
19-Mar-20 15:54 36.223565 -115.042185 309 1848ft 6kts
19-Mar-20 15:55 36.224350 -115.043250 321 1848ft 0kts
19-Mar-20 15:56 36.224979 -115.043913 329 1848ft 11kts
19-Mar-20 15:57 36.243672 -115.023785 40 2057ft 177kts
19-Mar-20 15:58 36.283204 -114.976731 43 4522ft 196kts
19-Mar-20 15:59 36.327054 -114.946852 333 7379ft 185kts
19-Mar-20 16:00 36.334849 -115.005437 226 9256ft 220kts
19-Mar-20 16:01 36.284706 -115.061020 220 10841ft 248kts
19-Mar-20 16:02 36.262362 -115.133630 282 12327ft 249kts
19-Mar-20 16:03 36.276497 -115.220789 282 13805ft 257kts
19-Mar-20 16:04 36.290845 -115.308971 281 15138ft 261kts
19-Mar-20 16:05 36.305407 -115.403677 282 15302ft 295kts
19-Mar-20 16:06 36.321447 -115.506573 282 15300ft 308kts
19-Mar-20 16:07 36.337940 -115.611633 282 15299ft 312kts
19-Mar-20 16:08 36.373575 -115.696498 4 15161ft 297kts
19-Mar-20 16:09 36.451603 -115.689098 3 15927ft 264kts
19-Mar-20 16:10 36.520655 -115.684468 3 15913ft 232kts
19-Mar-20 16:11 36.585029 -115.679905 3 15901ft 246kts
19-Mar-20 16:12 36.659886 -115.675224 3 15919ft 284kts
19-Mar-20 16:13 36.737221 -115.690221 309 15914ft 301kts
19-Mar-20 16:15 36.718558 -115.779152 198 15944ft 315kts
19-Mar-20 16:16 36.656199 -115.730421 86 15944ft 298kts
19-Mar-20 16:17 36.713456 -115.679417 359 15954ft 294kts
19-Mar-20 16:18 36.794674 -115.659375 17 15634ft 303kts
19-Mar-20 16:19 36.869657 -115.665904 303 15691ft 307kts
19-Mar-20 16:20 36.872183 -115.770922 223 15178ft 325kts
19-Mar-20 16:21 36.786139 -115.790310 160 15251ft 314kts
19-Mar-20 16:22 36.775644 -115.709193 27 15232ft 292kts
19-Mar-20 16:23 36.849398 -115.652802 2 14375ft 313kts
19-Mar-20 16:24 36.888437 -115.736821 271 13788ft 336kts
19-Mar-20 16:25 36.828757 -115.803457 181 13842ft 322kts
19-Mar-20 16:26 36.787839 -115.741413 53 12968ft 319kts
19-Mar-20 16:27 36.855678 -115.772355 332 12621ft 313kts
19-Mar-20 16:28 36.868597 -115.725067 192 12664ft 308kts
19-Mar-20 16:29 36.805621 -115.799760 210 12459ft 323kts
19-Mar-20 16:30 36.780123 -115.743075 44 12409ft 303kts
19-Mar-20 16:30 36.831916 -115.680559 42 12192ft 312kts
19-Mar-20 16:32 36.896971 -115.702373 278 12742ft 314kts
19-Mar-20 16:33 36.848641 -115.776469 184 12747ft 310kts
19-Mar-20 16:33 36.781596 -115.766872 135 12925ft 280kts
19-Mar-20 16:34 36.807514 -115.693980 36 12809ft 279kts
19-Mar-20 16:36 36.881014 -115.670714 292 12560ft 296kts
19-Mar-20 16:36 36.884277 -115.756657 244 12335ft 295kts
19-Mar-20 16:37 36.820086 -115.815298 174 11911ft 281kts
19-Mar-20 16:39 36.774890 -115.719126 125 11409ft 324kts
19-Mar-20 16:39 36.728351 -115.649389 136 10910ft 288kts
19-Mar-20 16:40 36.673361 -115.643222 274 9943ft 248kts
19-Mar-20 16:41 36.706672 -115.720844 256 8908ft 275kts
19-Mar-20 16:42 36.669799 -115.711081 68 8957ft 236kts
19-Mar-20 16:43 36.698904 -115.637036 109 9139ft 250kts
19-Mar-20 16:44 36.698260 -115.643465 8 6674ft 317kts
19-Mar-20 16:45 36.777103 -115.614660 98 5529ft 329kts
19-Mar-20 16:46 36.757074 -115.520614 28 7272ft 278kts
19-Mar-20 16:47 36.832276 -115.544229 301 7791ft 281kts
19-Mar-20 16:48 36.797420 -115.593497 181 7958ft 300kts
19-Mar-20 16:49 36.812936 -115.529794 17 6341ft 340kts
19-Mar-20 16:50 36.860945 -115.595095 289 6546ft 332kts
19-Mar-20 16:51 36.797996 -115.598553 156 6486ft 296kts
19-Mar-20 16:52 36.810835 -115.622673 13 3906ft 255kts
19-Mar-20 16:53 36.839851 -115.566729 156 6660ft 269kts
19-Mar-20 16:54 36.768038 -115.591507 201 7913ft 253kts
19-Mar-20 16:55 36.703870 -115.619047 213 7556ft 230kts
19-Mar-20 16:56 36.661739 -115.682771 275 8887ft 271kts
19-Mar-20 16:57 36.719332 -115.688535 70 8694ft 294kts
19-Mar-20 16:58 36.667080 -115.638710 201 8768ft 288kts
19-Mar-20 16:59 36.600412 -115.655773 147 8857ft 222kts
19-Mar-20 17:00 36.551057 -115.597712 129 8897ft 245kts
19-Mar-20 17:01 36.513145 -115.626978 249 8401ft 221kts
19-Mar-20 17:02 36.531381 -115.677320 38 8214ft 227kts
19-Mar-20 17:03 36.510453 -115.638752 233 8198ft 241kts
19-Mar-20 17:04 36.539587 -115.677106 64 8018ft 211kts
19-Mar-20 17:05 36.495918 -115.651953 225 8345ft 252kts
19-Mar-20 17:06 36.519200 -115.698217 30 8140ft 247kts
19-Mar-20 17:07 36.521426 -115.621098 140 8222ft 272kts
19-Mar-20 17:08 36.479173 -115.568272 111 8322ft 186kts
19-Mar-20 17:09 36.497650 -115.580560 245 8385ft 192kts
19-Mar-20 17:10 36.504441 -115.646511 359 8158ft 218kts
19-Mar-20 17:11 36.505275 -115.590264 129 7933ft 248kts
19-Mar-20 17:12 36.455724 -115.527486 135 7930ft 255kts
19-Mar-20 17:13 36.403222 -115.470501 135 7330ft 234kts
19-Mar-20 17:14 36.358899 -115.414873 125 6469ft 219kts
19-Mar-20 17:15 36.331283 -115.345528 114 6710ft 235kts
19-Mar-20 17:16 36.307004 -115.271910 107 6692ft 228kts
19-Mar-20 17:17 36.284152 -115.197604 106 6336ft 226kts
19-Mar-20 17:18 36.260931 -115.130431 101 4515ft 201kts
19-Mar-20 17:19 36.227699 -115.109046 195 3842ft 202kts
19-Mar-20 17:20 36.205623 -115.066546 49 2788ft 168kts
19-Mar-20 17:21 36.234490 -115.033828 38 1850ft 95kts
19-Mar-20 17:22 36.245018 -115.021222 136 1860ft 13kts
19-Mar-20 17:23 36.242197 -115.021953 219 1857ft 24kts
19-Mar-20 17:24 36.235791 -115.028865 221 1852ft 26kts
19-Mar-20 17:25 36.230768 -115.030810 102 1850ft 8kts
19-Mar-20 17:26 36.229690 -115.025078 121 1850ft 8kts
19-Mar-20 17:27 36.229634 -115.024571 88 1850ft 0kts
19-Mar-20 17:28 36.229634 -115.024571 88 1850ft 0kts
19-Mar-20 17:29 36.229634 -115.024571 88 1850ft 0kts
19-Mar-20 17:30 36.229634 -115.024571 88 1850ft 0kts
19-Mar-20 17:31 36.229634 -115.024571 88 1850ft 0kts
19-Mar-20 17:32 36.229634 -115.024571 88 1850ft 0kts
19-Mar-20 17:33 36.229634 -115.024571 88 1850ft 0kts
19-Mar-20 17:34 36.229634 -115.024571 88 1850ft 0kts
19-Mar-20 17:35 36.229634 -115.024571 88 1850ft 0kts

Navigation Log

Ident Type
Flight plan parsing failed, navigation log unavailable